LiveATC.Net - Listen to live air traffic control over the Internet!


ICAO: KDSM  IATA: DSM   Airport: Des Moines International Airport
City: Des Moines   State/Province: Iowa
Country: United States   Continent: North America
KDSM METAR Weather: KDSM 040254Z 28003KT 10SM SCT250 BKN300 26/19 A2976 RMK AO2 SLP069 T02610189 55000
KDSM Flight Activity (FlightAware)
KDSM Airport Info   (iFlightPlanner)
KDSM VFR Sectional Chart   (iFlightPlanner) 
KDSM IFR Low Chart   (iFlightPlanner) 

KDSM Del/Gnd/Twr/App
Feed Status: DOWN
Last heard on: 2020-06-04 03:04:39 (0 days 0 hours 1 minutes ago)
Archive Access: KDSM Del/Gnd/Twr/App
FacilityFrequency
Des Moines Approach/Departure118.600
Des Moines Approach/Departure123.900
Des Moines Approach/Departure135.200
Des Moines Clearance Delivery134.150
Des Moines Ground121.900
Des Moines Tower118.300

NOTICE

Unauthorized use prohibited. See LiveATC.net Terms of Service


Airport/ARTCC Code
Frequency Search
(e.g., 124.400, 128.75)
Site-wide search
 


Browse Feeds
Top 50 Feeds
Coverage Map
Bad Weather Areas

LiveATC FAQ
Offer LiveATC feed
Contact LiveATC.net
Press Inquiries

LiveATC on iPhone
LiveATC on Android

Windows Phone
Windows 8/10

LiveATC Mobile
(Mobile browser)

ATC Audio Archives
Interesting Recordings

LiveATC Forums


Home Page
About LiveATC.net
Make a Donation
Terms of Use
Privacy Policy

Canadian Air Freqs

AIRMETs/SIGMETs

FAA Airport Status
Nat'l Airspace Status
Arrival Demand Charts


Server Software By:
Icecast.org
Liquidsoap